sensor_id;sensor_type;location;lat;lon;timestamp;pressure;altitude;pressure_sealevel;temperature;humidity
21182;BME280;10749;46.296;7.524;2022-10-04T00:00:41;95520.59;;;17.29;49.66
21182;BME280;10749;46.296;7.524;2022-10-04T00:03:27;95509.91;;;17.29;49.69
21182;BME280;10749;46.296;7.524;2022-10-04T00:05:55;95508.25;;;17.28;49.80
21182;BME280;10749;46.296;7.524;2022-10-04T00:08:37;95505.38;;;17.23;49.89
21182;BME280;10749;46.296;7.524;2022-10-04T00:11:25;95505.38;;;17.17;49.86
21182;BME280;10749;46.296;7.524;2022-10-04T00:14:04;95509.06;;;17.16;49.98
21182;BME280;10749;46.296;7.524;2022-10-04T00:16:34;95509.47;;;17.06;49.79
21182;BME280;10749;46.296;7.524;2022-10-04T00:24:30;95524.09;;;17.17;49.79
21182;BME280;10749;46.296;7.524;2022-10-04T00:34:54;95519.34;;;17.19;49.81
21182;BME280;10749;46.296;7.524;2022-10-04T00:37:22;95515.25;;;17.16;49.91
21182;BME280;10749;46.296;7.524;2022-10-04T00:42:34;95513.16;;;17.12;49.56
21182;BME280;10749;46.296;7.524;2022-10-04T00:52:42;95510.25;;;16.87;49.51
21182;BME280;10749;46.296;7.524;2022-10-04T00:55:19;95507.34;;;16.82;49.89
21182;BME280;10749;46.296;7.524;2022-10-04T00:57:48;95517.63;;;16.72;49.91
21182;BME280;10749;46.296;7.524;2022-10-04T01:00:18;95517.19;;;16.68;49.97
21182;BME280;10749;46.296;7.524;2022-10-04T01:03:04;95511.03;;;16.68;50.21
21182;BME280;10749;46.296;7.524;2022-10-04T01:05:34;95525.81;;;16.64;50.36
21182;BME280;10749;46.296;7.524;2022-10-04T01:08:16;95518.78;;;16.56;50.37
21182;BME280;10749;46.296;7.524;2022-10-04T01:10:49;95516.69;;;16.51;50.77
21182;BME280;10749;46.296;7.524;2022-10-04T01:13:20;95512.19;;;16.52;50.92
21182;BME280;10749;46.296;7.524;2022-10-04T01:20:55;95502.03;;;16.34;51.44
21182;BME280;10749;46.296;7.524;2022-10-04T01:23:31;95497.69;;;16.33;51.35
21182;BME280;10749;46.296;7.524;2022-10-04T01:25:57;95489.44;;;16.28;51.60
21182;BME280;10749;46.296;7.524;2022-10-04T01:28:23;95491.47;;;16.20;51.99
21182;BME280;10749;46.296;7.524;2022-10-04T01:30:49;95488.13;;;16.11;52.55
21182;BME280;10749;46.296;7.524;2022-10-04T01:33:14;95496.56;;;16.08;52.62
21182;BME280;10749;46.296;7.524;2022-10-04T01:35:40;95484.84;;;16.09;52.75
21182;BME280;10749;46.296;7.524;2022-10-04T01:38:06;95483.78;;;16.03;52.82
21182;BME280;10749;46.296;7.524;2022-10-04T01:40:33;95484.84;;;16.02;52.90
21182;BME280;10749;46.296;7.524;2022-10-04T01:43:10;95484.00;;;16.02;52.75
21182;BME280;10749;46.296;7.524;2022-10-04T01:45:43;95492.78;;;15.96;53.09
21182;BME280;10749;46.296;7.524;2022-10-04T01:48:15;95478.84;;;15.94;52.81
21182;BME280;10749;46.296;7.524;2022-10-04T01:51:12;95487.22;;;15.91;53.50
21182;BME280;10749;46.296;7.524;2022-10-04T01:53:47;95484.34;;;15.86;53.54
21182;BME280;10749;46.296;7.524;2022-10-04T01:56:17;95486.78;;;15.87;54.10
21182;BME280;10749;46.296;7.524;2022-10-04T01:58:58;95472.41;;;15.82;54.14
21182;BME280;10749;46.296;7.524;2022-10-04T02:01:35;95477.75;;;15.82;54.10
21182;BME280;10749;46.296;7.524;2022-10-04T02:04:09;95473.19;;;15.82;53.92
21182;BME280;10749;46.296;7.524;2022-10-04T02:06:39;95471.59;;;15.88;54.40
21182;BME280;10749;46.296;7.524;2022-10-04T02:09:09;95470.34;;;15.84;54.22
21182;BME280;10749;46.296;7.524;2022-10-04T02:11:37;95464.97;;;15.77;54.43
21182;BME280;10749;46.296;7.524;2022-10-04T02:14:10;95476.25;;;15.73;54.78
21182;BME280;10749;46.296;7.524;2022-10-04T02:16:42;95471.91;;;15.72;54.54
21182;BME280;10749;46.296;7.524;2022-10-04T02:19:09;95473.50;;;15.66;54.67
21182;BME280;10749;46.296;7.524;2022-10-04T02:21:36;95477.22;;;15.65;54.55
21182;BME280;10749;46.296;7.524;2022-10-04T02:24:03;95470.00;;;15.65;54.87
21182;BME280;10749;46.296;7.524;2022-10-04T02:26:29;95472.25;;;15.62;54.89
21182;BME280;10749;46.296;7.524;2022-10-04T02:28:55;95472.94;;;15.49;55.03
21182;BME280;10749;46.296;7.524;2022-10-04T02:31:21;95469.47;;;15.49;55.00
21182;BME280;10749;46.296;7.524;2022-10-04T02:34:06;95473.34;;;15.46;54.97
21182;BME280;10749;46.296;7.524;2022-10-04T02:36:33;95472.53;;;15.46;55.21
21182;BME280;10749;46.296;7.524;2022-10-04T02:39:30;95477.59;;;15.41;55.30
21182;BME280;10749;46.296;7.524;2022-10-04T02:42:01;95473.50;;;15.38;55.30
21182;BME280;10749;46.296;7.524;2022-10-04T02:44:43;95469.97;;;15.31;55.19
21182;BME280;10749;46.296;7.524;2022-10-04T02:47:21;95476.00;;;15.18;55.00
21182;BME280;10749;46.296;7.524;2022-10-04T02:49:51;95468.19;;;15.17;54.95
21182;BME280;10749;46.296;7.524;2022-10-04T02:54:52;95464.38;;;15.26;55.28
21182;BME280;10749;46.296;7.524;2022-10-04T02:57:21;95465.47;;;15.32;55.56
21182;BME280;10749;46.296;7.524;2022-10-04T02:59:48;95470.31;;;15.28;55.54
21182;BME280;10749;46.296;7.524;2022-10-04T03:02:28;95463.13;;;15.22;55.50
21182;BME280;10749;46.296;7.524;2022-10-04T03:04:56;95459.63;;;15.21;55.71
21182;BME280;10749;46.296;7.524;2022-10-04T03:07:23;95466.19;;;15.19;55.54
21182;BME280;10749;46.296;7.524;2022-10-04T03:09:49;95461.19;;;15.16;55.76
21182;BME280;10749;46.296;7.524;2022-10-04T03:12:16;95460.34;;;15.09;55.71
21182;BME280;10749;46.296;7.524;2022-10-04T03:14:42;95458.94;;;15.13;55.90
21182;BME280;10749;46.296;7.524;2022-10-04T03:17:08;95463.44;;;15.12;55.86
21182;BME280;10749;46.296;7.524;2022-10-04T03:19:34;95455.84;;;15.09;56.00
21182;BME280;10749;46.296;7.524;2022-10-04T03:22:06;95459.31;;;15.10;55.85
21182;BME280;10749;46.296;7.524;2022-10-04T03:24:55;95463.00;;;15.09;55.65
21182;BME280;10749;46.296;7.524;2022-10-04T03:27:26;95458.69;;;15.08;55.79
21182;BME280;10749;46.296;7.524;2022-10-04T03:29:54;95462.31;;;15.00;55.70
21182;BME280;10749;46.296;7.524;2022-10-04T03:32:20;95463.53;;;14.98;55.95
21182;BME280;10749;46.296;7.524;2022-10-04T03:34:52;95477.59;;;14.92;55.93
21182;BME280;10749;46.296;7.524;2022-10-04T03:37:19;95466.75;;;14.93;55.95
21182;BME280;10749;46.296;7.524;2022-10-04T03:39:47;95466.75;;;14.93;55.71
21182;BME280;10749;46.296;7.524;2022-10-04T03:42:21;95463.84;;;14.88;55.98
21182;BME280;10749;46.296;7.524;2022-10-04T03:44:50;95467.06;;;14.84;56.26
21182;BME280;10749;46.296;7.524;2022-10-04T03:47:24;95476.16;;;14.68;56.71
21182;BME280;10749;46.296;7.524;2022-10-04T03:49:52;95469.44;;;14.72;56.73
21182;BME280;10749;46.296;7.524;2022-10-04T03:52:23;95469.59;;;14.70;56.63
21182;BME280;10749;46.296;7.524;2022-10-04T03:54:51;95475.31;;;14.67;56.73
21182;BME280;10749;46.296;7.524;2022-10-04T03:57:17;95470.16;;;14.66;56.70
21182;BME280;10749;46.296;7.524;2022-10-04T03:59:43;95475.72;;;14.64;56.66
21182;BME280;10749;46.296;7.524;2022-10-04T04:02:25;95475.97;;;14.69;56.66
21182;BME280;10749;46.296;7.524;2022-10-04T04:07:35;95475.81;;;14.56;56.74
21182;BME280;10749;46.296;7.524;2022-10-04T04:10:05;95486.09;;;14.59;56.83
21182;BME280;10749;46.296;7.524;2022-10-04T04:12:58;95480.94;;;14.58;56.83
21182;BME280;10749;46.296;7.524;2022-10-04T04:15:30;95480.50;;;14.54;56.93
21182;BME280;10749;46.296;7.524;2022-10-04T04:18:00;95482.09;;;14.49;57.21
21182;BME280;10749;46.296;7.524;2022-10-04T04:22:58;95480.16;;;14.43;57.19
21182;BME280;10749;46.296;7.524;2022-10-04T04:25:25;95491.28;;;14.46;56.84
21182;BME280;10749;46.296;7.524;2022-10-04T04:28:00;95488.59;;;14.46;56.82
21182;BME280;10749;46.296;7.524;2022-10-04T04:30:28;95485.59;;;14.49;56.85
21182;BME280;10749;46.296;7.524;2022-10-04T04:32:56;95482.09;;;14.49;56.81
21182;BME280;10749;46.296;7.524;2022-10-04T04:35:32;95477.34;;;14.44;56.81
21182;BME280;10749;46.296;7.524;2022-10-04T04:38:05;95486.16;;;14.45;56.90
21182;BME280;10749;46.296;7.524;2022-10-04T04:40:31;95482.91;;;14.34;57.17
21182;BME280;10749;46.296;7.524;2022-10-04T04:42:59;95488.63;;;14.31;57.10
21182;BME280;10749;46.296;7.524;2022-10-04T04:45:27;95482.47;;;14.31;57.06
21182;BME280;10749;46.296;7.524;2022-10-04T04:47:55;95484.25;;;14.24;57.19
21182;BME280;10749;46.296;7.524;2022-10-04T04:50:29;95494.22;;;14.22;57.43
21182;BME280;10749;46.296;7.524;2022-10-04T04:53:07;95492.03;;;14.25;57.50
21182;BME280;10749;46.296;7.524;2022-10-04T04:55:42;95494.22;;;14.22;57.18
21182;BME280;10749;46.296;7.524;2022-10-04T04:58:15;95500.75;;;14.19;57.40
21182;BME280;10749;46.296;7.524;2022-10-04T05:00:55;95496.06;;;14.21;57.42
21182;BME280;10749;46.296;7.524;2022-10-04T05:03:21;95494.69;;;14.25;57.38
21182;BME280;10749;46.296;7.524;2022-10-04T05:05:47;95494.69;;;14.25;57.10
21182;BME280;10749;46.296;7.524;2022-10-04T05:08:25;95495.50;;;14.26;57.42
21182;BME280;10749;46.296;7.524;2022-10-04T05:13:24;95502.22;;;14.22;57.19
21182;BME280;10749;46.296;7.524;2022-10-04T05:15:57;95496.94;;;14.07;57.52
21182;BME280;10749;46.296;7.524;2022-10-04T05:18:29;95501.31;;;14.15;57.23
21182;BME280;10749;46.296;7.524;2022-10-04T05:20:58;95501.31;;;14.15;57.35
21182;BME280;10749;46.296;7.524;2022-10-04T05:23:26;95500.88;;;14.11;57.02
21182;BME280;10749;46.296;7.524;2022-10-04T05:25:52;95504.63;;;14.02;57.28
21182;BME280;10749;46.296;7.524;2022-10-04T05:28:17;95499.13;;;14.04;57.32
21182;BME280;10749;46.296;7.524;2022-10-04T05:30:52;95498.09;;;14.05;57.57
21182;BME280;10749;46.296;7.524;2022-10-04T05:33:24;95496.19;;;13.99;57.30
21182;BME280;10749;46.296;7.524;2022-10-04T05:36:26;95491.22;;;13.96;57.58
21182;BME280;10749;46.296;7.524;2022-10-04T05:39:06;95499.59;;;13.93;57.40
21182;BME280;10749;46.296;7.524;2022-10-04T05:41:44;95498.31;;;13.88;57.75
21182;BME280;10749;46.296;7.524;2022-10-04T05:44:26;95511.31;;;13.83;57.55
21182;BME280;10749;46.296;7.524;2022-10-04T05:46:58;95513.97;;;13.83;57.65
21182;BME280;10749;46.296;7.524;2022-10-04T05:49:26;95508.41;;;13.78;57.68
21182;BME280;10749;46.296;7.524;2022-10-04T05:51:56;95507.56;;;13.78;57.94
21182;BME280;10749;46.296;7.524;2022-10-04T05:54:27;95509.97;;;13.73;58.22
21182;BME280;10749;46.296;7.524;2022-10-04T05:59:43;95504.56;;;13.66;58.15
21182;BME280;10749;46.296;7.524;2022-10-04T06:02:27;95505.56;;;13.65;57.88
21182;BME280;10749;46.296;7.524;2022-10-04T06:10:41;95503.19;;;13.70;58.16
21182;BME280;10749;46.296;7.524;2022-10-04T06:16:35;95509.88;;;13.66;58.13
21182;BME280;10749;46.296;7.524;2022-10-04T06:24:22;95511.25;;;13.62;58.24
21182;BME280;10749;46.296;7.524;2022-10-04T06:27:07;95506.25;;;13.59;58.21
21182;BME280;10749;46.296;7.524;2022-10-04T06:29:39;95518.28;;;13.55;58.36
21182;BME280;10749;46.296;7.524;2022-10-04T06:32:24;95515.72;;;13.62;58.21
21182;BME280;10749;46.296;7.524;2022-10-04T06:37:39;95511.78;;;13.72;58.01
21182;BME280;10749;46.296;7.524;2022-10-04T06:45:54;95517.00;;;13.80;57.91
21182;BME280;10749;46.296;7.524;2022-10-04T06:51:25;95523.63;;;13.84;57.79
21182;BME280;10749;46.296;7.524;2022-10-04T06:54:32;95529.59;;;13.86;57.64
21182;BME280;10749;46.296;7.524;2022-10-04T06:59:53;95518.50;;;13.98;57.67
21182;BME280;10749;46.296;7.524;2022-10-04T07:02:30;95516.81;;;13.97;57.51
21182;BME280;10749;46.296;7.524;2022-10-04T07:05:01;95518.78;;;14.03;57.34
21182;BME280;10749;46.296;7.524;2022-10-04T07:07:37;95513.81;;;14.14;57.33
21182;BME280;10749;46.296;7.524;2022-10-04T07:10:20;95524.19;;;14.24;57.19
21182;BME280;10749;46.296;7.524;2022-10-04T07:12:58;95527.00;;;14.37;57.13
21182;BME280;10749;46.296;7.524;2022-10-04T07:15:35;95524.94;;;14.54;56.93
21182;BME280;10749;46.296;7.524;2022-10-04T07:18:13;95527.22;;;14.71;57.03
21182;BME280;10749;46.296;7.524;2022-10-04T07:20:40;95530.66;;;14.87;57.04
21182;BME280;10749;46.296;7.524;2022-10-04T07:23:12;95533.09;;;15.03;56.52
21182;BME280;10749;46.296;7.524;2022-10-04T07:25:47;95541.19;;;15.16;56.44
21182;BME280;10749;46.296;7.524;2022-10-04T07:28:18;95536.00;;;15.29;56.54
21182;BME280;10749;46.296;7.524;2022-10-04T07:31:22;95536.94;;;15.43;56.36
21182;BME280;10749;46.296;7.524;2022-10-04T07:33:53;95532.94;;;15.53;56.23
21182;BME280;10749;46.296;7.524;2022-10-04T07:36:27;95533.84;;;15.60;56.19
21182;BME280;10749;46.296;7.524;2022-10-04T07:38:56;95533.03;;;15.66;55.85
21182;BME280;10749;46.296;7.524;2022-10-04T07:41:44;95531.44;;;15.72;55.49
21182;BME280;10749;46.296;7.524;2022-10-04T07:44:32;95534.41;;;15.84;55.49
21182;BME280;10749;46.296;7.524;2022-10-04T07:47:17;95537.59;;;16.00;55.64
21182;BME280;10749;46.296;7.524;2022-10-04T07:49:44;95532.09;;;16.08;55.31
21182;BME280;10749;46.296;7.524;2022-10-04T07:52:28;95529.84;;;16.12;55.75
21182;BME280;10749;46.296;7.524;2022-10-04T07:58:01;95537.16;;;16.31;55.50
21182;BME280;10749;46.296;7.524;2022-10-04T08:00:47;95530.16;;;16.30;55.44
21182;BME280;10749;46.296;7.524;2022-10-04T08:19:58;95529.50;;;16.63;54.67
21182;BME280;10749;46.296;7.524;2022-10-04T08:30:02;95528.16;;;16.93;54.18
21182;BME280;10749;46.296;7.524;2022-10-04T08:32:37;95515.22;;;16.96;54.36
21182;BME280;10749;46.296;7.524;2022-10-04T08:43:38;95519.72;;;16.96;54.15
21182;BME280;10749;46.296;7.524;2022-10-04T08:52:22;95514.25;;;17.30;54.01
21182;BME280;10749;46.296;7.524;2022-10-04T08:55:07;95508.25;;;17.41;53.83
21182;BME280;10749;46.296;7.524;2022-10-04T08:57:59;95500.03;;;17.49;53.92
21182;BME280;10749;46.296;7.524;2022-10-04T09:06:30;95500.28;;;17.68;53.83
21182;BME280;10749;46.296;7.524;2022-10-04T09:09:19;95497.78;;;17.73;53.28
21182;BME280;10749;46.296;7.524;2022-10-04T09:17:21;95486.88;;;17.74;53.34
21182;BME280;10749;46.296;7.524;2022-10-04T09:22:18;95493.44;;;17.91;53.09
21182;BME280;10749;46.296;7.524;2022-10-04T09:25:06;95481.47;;;17.94;52.87
21182;BME280;10749;46.296;7.524;2022-10-04T09:38:28;95480.16;;;18.29;52.64
21182;BME280;10749;46.296;7.524;2022-10-04T09:41:13;95482.78;;;18.42;52.22
21182;BME280;10749;46.296;7.524;2022-10-04T09:49:45;95478.00;;;18.58;51.77
21182;BME280;10749;46.296;7.524;2022-10-04T09:52:19;95470.97;;;18.63;51.50
21182;BME280;10749;46.296;7.524;2022-10-04T10:03:37;95460.94;;;19.15;51.39
21182;BME280;10749;46.296;7.524;2022-10-04T10:06:47;95459.56;;;19.30;51.26
21182;BME280;10749;46.296;7.524;2022-10-04T10:28:01;95462.16;;;20.30;50.60
21182;BME280;10749;46.296;7.524;2022-10-04T10:34:55;95457.97;;;20.52;49.92
21182;BME280;10749;46.296;7.524;2022-10-04T10:39:51;95455.38;;;20.75;49.55
21182;BME280;10749;46.296;7.524;2022-10-04T10:50:48;95454.03;;;20.84;47.81
21182;BME280;10749;46.296;7.524;2022-10-04T11:04:56;95443.00;;;21.80;48.30
21182;BME280;10749;46.296;7.524;2022-10-04T11:10:40;95435.63;;;22.11;46.88
21182;BME280;10749;46.296;7.524;2022-10-04T11:16:17;95438.88;;;22.24;47.06
21182;BME280;10749;46.296;7.524;2022-10-04T11:24:13;95445.66;;;22.78;47.05
21182;BME280;10749;46.296;7.524;2022-10-04T11:29:38;95428.31;;;22.74;45.81
21182;BME280;10749;46.296;7.524;2022-10-04T11:35:22;95425.31;;;22.59;44.07
21182;BME280;10749;46.296;7.524;2022-10-04T11:38:24;95416.09;;;22.83;45.51
21182;BME280;10749;46.296;7.524;2022-10-04T11:43:42;95431.84;;;23.20;44.32
21182;BME280;10749;46.296;7.524;2022-10-04T11:54:52;95420.47;;;23.63;43.49
21182;BME280;10749;46.296;7.524;2022-10-04T11:57:47;95421.09;;;23.70;43.00
21182;BME280;10749;46.296;7.524;2022-10-04T12:00:18;95421.78;;;23.77;43.11
21182;BME280;10749;46.296;7.524;2022-10-04T12:08:13;95409.75;;;23.89;42.87
21182;BME280;10749;46.296;7.524;2022-10-04T12:10:49;95414.97;;;24.13;42.67
21182;BME280;10749;46.296;7.524;2022-10-04T12:13:41;95399.03;;;24.33;42.46
21182;BME280;10749;46.296;7.524;2022-10-04T12:24:53;95383.09;;;25.07;41.42
21182;BME280;10749;46.296;7.524;2022-10-04T12:27:49;95380.72;;;25.15;41.24
21182;BME280;10749;46.296;7.524;2022-10-04T12:33:33;95371.72;;;24.83;39.05
21182;BME280;10749;46.296;7.524;2022-10-04T12:36:21;95365.06;;;25.22;39.55
21182;BME280;10749;46.296;7.524;2022-10-04T12:41:30;95351.16;;;25.78;39.39
21182;BME280;10749;46.296;7.524;2022-10-04T12:44:23;95350.16;;;25.94;39.88
21182;BME280;10749;46.296;7.524;2022-10-04T12:49:54;95347.28;;;26.15;38.71
21182;BME280;10749;46.296;7.524;2022-10-04T12:52:25;95339.53;;;26.39;38.52
21182;BME280;10749;46.296;7.524;2022-10-04T12:55:19;95329.09;;;26.11;35.71
21182;BME280;10749;46.296;7.524;2022-10-04T12:57:58;95327.31;;;25.85;36.55
21182;BME280;10749;46.296;7.524;2022-10-04T13:00:31;95320.25;;;26.31;36.89
21182;BME280;10749;46.296;7.524;2022-10-04T13:11:51;95320.69;;;27.05;35.47
21182;BME280;10749;46.296;7.524;2022-10-04T13:19:27;95313.91;;;27.13;34.52
21182;BME280;10749;46.296;7.524;2022-10-04T13:24:52;95316.34;;;27.39;33.09
21182;BME280;10749;46.296;7.524;2022-10-04T13:27:41;95306.84;;;27.37;34.60
21182;BME280;10749;46.296;7.524;2022-10-04T13:30:26;95312.53;;;27.76;35.16
21182;BME280;10749;46.296;7.524;2022-10-04T13:52:35;95298.78;;;28.80;33.59
21182;BME280;10749;46.296;7.524;2022-10-04T13:55:32;95302.25;;;29.25;33.50
21182;BME280;10749;46.296;7.524;2022-10-04T13:58:33;95298.44;;;29.60;33.24
21182;BME280;10749;46.296;7.524;2022-10-04T14:04:19;95287.91;;;29.77;32.45
21182;BME280;10749;46.296;7.524;2022-10-04T14:10:11;95300.69;;;30.29;32.68
21182;BME280;10749;46.296;7.524;2022-10-04T14:21:22;95292.00;;;30.27;30.61
21182;BME280;10749;46.296;7.524;2022-10-04T14:32:36;95299.81;;;30.95;28.86
21182;BME280;10749;46.296;7.524;2022-10-04T14:35:32;95292.66;;;30.80;28.21
21182;BME280;10749;46.296;7.524;2022-10-04T15:00:20;95296.91;;;30.49;26.78
21182;BME280;10749;46.296;7.524;2022-10-04T15:03:07;95294.72;;;30.51;27.17
21182;BME280;10749;46.296;7.524;2022-10-04T15:11:30;95293.13;;;30.45;28.10
21182;BME280;10749;46.296;7.524;2022-10-04T15:14:03;95293.06;;;29.78;28.70
21182;BME280;10749;46.296;7.524;2022-10-04T15:16:55;95294.06;;;28.47;27.86
21182;BME280;10749;46.296;7.524;2022-10-04T15:19:28;95288.66;;;27.58;28.82
21182;BME280;10749;46.296;7.524;2022-10-04T15:24:59;95291.84;;;26.69;29.57
21182;BME280;10749;46.296;7.524;2022-10-04T15:30:33;95282.94;;;25.96;30.21
21182;BME280;10749;46.296;7.524;2022-10-04T15:36:07;95287.47;;;25.43;30.83
21182;BME280;10749;46.296;7.524;2022-10-04T15:41:28;95280.72;;;25.04;31.37
21182;BME280;10749;46.296;7.524;2022-10-04T15:46:50;95290.31;;;24.90;31.77
21182;BME280;10749;46.296;7.524;2022-10-04T15:49:46;95291.84;;;24.80;32.08
21182;BME280;10749;46.296;7.524;2022-10-04T15:58:13;95293.13;;;23.98;34.33
21182;BME280;10749;46.296;7.524;2022-10-04T16:03:44;95291.47;;;23.97;34.25
21182;BME280;10749;46.296;7.524;2022-10-04T16:06:24;95297.75;;;23.80;34.69
21182;BME280;10749;46.296;7.524;2022-10-04T16:09:17;95300.63;;;23.35;35.35
21182;BME280;10749;46.296;7.524;2022-10-04T16:17:28;95307.59;;;23.31;36.27
21182;BME280;10749;46.296;7.524;2022-10-04T16:22:29;95308.47;;;23.20;35.60
21182;BME280;10749;46.296;7.524;2022-10-04T16:24:58;95305.63;;;23.27;35.64
21182;BME280;10749;46.296;7.524;2022-10-04T16:30:13;95325.34;;;23.11;35.74
21182;BME280;10749;46.296;7.524;2022-10-04T16:33:04;95331.06;;;23.14;35.60
21182;BME280;10749;46.296;7.524;2022-10-04T16:35:38;95335.56;;;23.09;35.58
21182;BME280;10749;46.296;7.524;2022-10-04T16:41:00;95342.06;;;22.79;36.54
21182;BME280;10749;46.296;7.524;2022-10-04T16:43:32;95346.81;;;22.72;36.77
21182;BME280;10749;46.296;7.524;2022-10-04T16:46:18;95351.44;;;22.60;37.14
21182;BME280;10749;46.296;7.524;2022-10-04T16:51:46;95363.66;;;22.23;37.62
21182;BME280;10749;46.296;7.524;2022-10-04T17:10:17;95402.72;;;21.74;37.42
21182;BME280;10749;46.296;7.524;2022-10-04T17:13:20;95401.91;;;21.61;38.22
21182;BME280;10749;46.296;7.524;2022-10-04T17:20:59;95417.47;;;21.48;39.04
21182;BME280;10749;46.296;7.524;2022-10-04T17:23:48;95421.34;;;21.40;38.93
21182;BME280;10749;46.296;7.524;2022-10-04T17:31:56;95425.97;;;21.22;39.80
21182;BME280;10749;46.296;7.524;2022-10-04T17:37:23;95430.59;;;21.03;40.36
21182;BME280;10749;46.296;7.524;2022-10-04T17:42:47;95437.31;;;20.82;41.15
21182;BME280;10749;46.296;7.524;2022-10-04T17:48:20;95449.66;;;20.71;41.23
21182;BME280;10749;46.296;7.524;2022-10-04T17:51:55;95461.22;;;20.72;40.76
21182;BME280;10749;46.296;7.524;2022-10-04T17:54:27;95466.47;;;20.67;41.20
21182;BME280;10749;46.296;7.524;2022-10-04T17:57:21;95477.53;;;20.59;41.48
21182;BME280;10749;46.296;7.524;2022-10-04T17:59:55;95481.22;;;20.46;41.59
21182;BME280;10749;46.296;7.524;2022-10-04T18:03:15;95487.25;;;20.42;41.34
21182;BME280;10749;46.296;7.524;2022-10-04T18:08:20;95486.53;;;20.35;41.80
21182;BME280;10749;46.296;7.524;2022-10-04T18:10:51;95489.06;;;20.30;41.86
21182;BME280;10749;46.296;7.524;2022-10-04T18:13:44;95484.56;;;20.23;41.63
21182;BME280;10749;46.296;7.524;2022-10-04T18:16:15;95495.00;;;20.13;42.16
21182;BME280;10749;46.296;7.524;2022-10-04T18:18:44;95503.97;;;20.07;42.09
21182;BME280;10749;46.296;7.524;2022-10-04T18:21:22;95502.31;;;20.06;42.17
21182;BME280;10749;46.296;7.524;2022-10-04T18:24:00;95506.09;;;19.99;42.67
21182;BME280;10749;46.296;7.524;2022-10-04T18:26:29;95503.47;;;19.92;42.67
21182;BME280;10749;46.296;7.524;2022-10-04T18:28:56;95507.06;;;19.86;42.63
21182;BME280;10749;46.296;7.524;2022-10-04T18:34:18;95503.91;;;19.89;42.58
21182;BME280;10749;46.296;7.524;2022-10-04T18:36:50;95510.94;;;19.90;42.24
21182;BME280;10749;46.296;7.524;2022-10-04T18:39:21;95516.75;;;19.87;41.65
21182;BME280;10749;46.296;7.524;2022-10-04T18:44:47;95527.81;;;19.48;42.93
21182;BME280;10749;46.296;7.524;2022-10-04T18:47:35;95530.31;;;19.43;42.56
21182;BME280;10749;46.296;7.524;2022-10-04T18:55:38;95551.38;;;19.46;42.98
21182;BME280;10749;46.296;7.524;2022-10-04T19:04:34;95557.25;;;19.29;43.99
21182;BME280;10749;46.296;7.524;2022-10-04T19:07:09;95561.81;;;19.22;44.19
21182;BME280;10749;46.296;7.524;2022-10-04T19:12:50;95555.97;;;19.01;44.60
21182;BME280;10749;46.296;7.524;2022-10-04T19:15:28;95553.28;;;19.01;44.59
21182;BME280;10749;46.296;7.524;2022-10-04T19:18:07;95557.81;;;19.00;44.79
21182;BME280;10749;46.296;7.524;2022-10-04T19:23:42;95553.31;;;18.94;44.56
21182;BME280;10749;46.296;7.524;2022-10-04T19:26:16;95568.22;;;18.83;44.85
21182;BME280;10749;46.296;7.524;2022-10-04T19:28:49;95564.72;;;18.83;44.61
21182;BME280;10749;46.296;7.524;2022-10-04T19:31:28;95572.75;;;18.83;44.77
21182;BME280;10749;46.296;7.524;2022-10-04T19:36:56;95585.00;;;18.66;45.05
21182;BME280;10749;46.296;7.524;2022-10-04T19:39:47;95588.09;;;18.56;45.50
21182;BME280;10749;46.296;7.524;2022-10-04T19:42:26;95596.75;;;18.52;44.83
21182;BME280;10749;46.296;7.524;2022-10-04T19:47:51;95593.84;;;18.66;44.50
21182;BME280;10749;46.296;7.524;2022-10-04T19:50:23;95605.84;;;18.51;45.17
21182;BME280;10749;46.296;7.524;2022-10-04T19:53:22;95609.53;;;18.56;45.13
21182;BME280;10749;46.296;7.524;2022-10-04T19:55:58;95619.03;;;18.59;45.19
21182;BME280;10749;46.296;7.524;2022-10-04T20:01:16;95620.06;;;18.44;45.11
21182;BME280;10749;46.296;7.524;2022-10-04T20:03:42;95618.88;;;18.34;45.80
21182;BME280;10749;46.296;7.524;2022-10-04T20:06:08;95614.56;;;18.13;46.33
21182;BME280;10749;46.296;7.524;2022-10-04T20:11:44;95621.16;;;18.17;46.10
21182;BME280;10749;46.296;7.524;2022-10-04T20:27:03;95637.84;;;18.13;46.78
21182;BME280;10749;46.296;7.524;2022-10-04T20:32:06;95646.06;;;17.98;47.37
21182;BME280;10749;46.296;7.524;2022-10-04T20:34:46;95653.50;;;17.96;47.16
21182;BME280;10749;46.296;7.524;2022-10-04T20:37:12;95655.34;;;17.95;47.19
21182;BME280;10749;46.296;7.524;2022-10-04T20:45:02;95659.88;;;17.82;47.62
21182;BME280;10749;46.296;7.524;2022-10-04T20:50:02;95663.56;;;17.81;47.56
21182;BME280;10749;46.296;7.524;2022-10-04T20:52:30;95664.19;;;17.83;47.33
21182;BME280;10749;46.296;7.524;2022-10-04T20:54:58;95661.94;;;17.80;47.84
21182;BME280;10749;46.296;7.524;2022-10-04T20:57:26;95673.03;;;17.77;48.00
21182;BME280;10749;46.296;7.524;2022-10-04T20:59:52;95673.25;;;17.75;47.76
21182;BME280;10749;46.296;7.524;2022-10-04T21:02:22;95673.84;;;17.71;47.78
21182;BME280;10749;46.296;7.524;2022-10-04T21:04:49;95678.38;;;17.70;47.59
21182;BME280;10749;46.296;7.524;2022-10-04T21:07:20;95675.91;;;17.69;47.83
21182;BME280;10749;46.296;7.524;2022-10-04T21:09:46;95686.41;;;17.70;47.62
21182;BME280;10749;46.296;7.524;2022-10-04T21:12:44;95682.50;;;17.73;47.25
21182;BME280;10749;46.296;7.524;2022-10-04T21:17:42;95691.53;;;17.59;47.76
21182;BME280;10749;46.296;7.524;2022-10-04T21:20:40;95690.69;;;17.51;47.93
21182;BME280;10749;46.296;7.524;2022-10-04T21:23:27;95691.47;;;17.45;48.07
21182;BME280;10749;46.296;7.524;2022-10-04T21:28:51;95699.31;;;17.47;47.76
21182;BME280;10749;46.296;7.524;2022-10-04T21:31:17;95696.81;;;17.39;47.88
21182;BME280;10749;46.296;7.524;2022-10-04T21:33:42;95694.94;;;17.33;47.76
21182;BME280;10749;46.296;7.524;2022-10-04T21:36:08;95698.00;;;17.30;48.01
21182;BME280;10749;46.296;7.524;2022-10-04T21:38:33;95694.50;;;17.29;47.83
21182;BME280;10749;46.296;7.524;2022-10-04T21:40:58;95696.34;;;17.29;47.97